createdAt,value
2018-08-13T00:00:54.439Z,72.24
2018-08-13T00:01:46.370Z,72.24
2018-08-13T00:02:46.366Z,72.34
2018-08-13T00:03:54.955Z,72.44
2018-08-13T00:04:46.379Z,72.44
2018-08-13T00:05:46.333Z,72.64
2018-08-13T00:06:46.315Z,72.54
2018-08-13T00:07:46.319Z,72.54
2018-08-13T00:08:46.325Z,72.04
2018-08-13T00:09:46.294Z,72.54
2018-08-13T00:10:46.291Z,72.04
2018-08-13T00:11:46.267Z,71.84
2018-08-13T00:12:46.262Z,72.14
2018-08-13T00:13:46.292Z,71.94
2018-08-13T00:14:46.235Z,71.94
2018-08-13T00:15:46.224Z,71.53
2018-08-13T00:16:46.213Z,71.94
2018-08-13T00:17:46.202Z,71.94
2018-08-13T00:18:46.240Z,72.14
2018-08-13T00:19:46.177Z,72.14
2018-08-13T00:20:46.181Z,72.24
2018-08-13T00:21:46.153Z,71.64
2018-08-13T00:22:46.149Z,71.73
2018-08-13T00:23:46.186Z,71.84
2018-08-13T00:24:46.126Z,71.33
2018-08-13T00:25:46.110Z,71.53
2018-08-13T00:26:46.097Z,71.13
2018-08-13T00:27:46.092Z,71.13
2018-08-13T00:28:46.142Z,71.50
2018-08-13T00:29:46.068Z,71.23
2018-08-13T00:30:46.060Z,72.04
2018-08-13T00:31:46.043Z,71.44
2018-08-13T00:32:46.046Z,71.64
2018-08-13T00:33:55.511Z,71.84
2018-08-13T00:34:46.053Z,71.50
2018-08-13T00:35:46.018Z,71.84
2018-08-13T00:36:46.016Z,71.84
2018-08-13T00:37:45.987Z,71.84
2018-08-13T00:38:45.967Z,71.64
2018-08-13T00:39:45.983Z,71.13
2018-08-13T00:40:45.935Z,71.91
2018-08-13T00:41:45.921Z,71.70
2018-08-13T00:42:53.507Z,71.80
2018-08-13T00:43:45.904Z,71.20
2018-08-13T00:44:45.923Z,71.30
2018-08-13T00:45:53.545Z,71.30
2018-08-13T00:46:45.866Z,70.89
2018-08-13T00:47:45.858Z,71.40
2018-08-13T00:48:53.589Z,71.60
2018-08-13T00:49:45.864Z,71.91
2018-08-13T00:50:45.864Z,71.91
2018-08-13T00:51:53.611Z,71.44
2018-08-13T00:52:45.844Z,72.51
2018-08-13T00:53:45.789Z,72.14
2018-08-13T00:54:53.645Z,71.13
2018-08-13T00:55:45.811Z,72.04
2018-08-13T00:56:45.760Z,71.84
2018-08-13T00:57:45.747Z,72.24
2018-08-13T00:58:45.739Z,72.51
2018-08-13T00:59:45.758Z,71.30
2018-08-13T01:00:45.711Z,71.80
2018-08-13T01:01:45.712Z,71.70
2018-08-13T01:02:45.709Z,71.40
2018-08-13T01:03:45.681Z,72.11
2018-08-13T01:04:45.725Z,72.11
2018-08-13T01:05:45.657Z,72.31
2018-08-13T01:06:54.707Z,72.20
2018-08-13T01:07:45.641Z,72.20
2018-08-13T01:08:45.647Z,72.31
2018-08-13T01:09:45.642Z,71.00
2018-08-13T01:10:45.612Z,72.51
2018-08-13T01:11:45.597Z,72.11
2018-08-13T01:12:54.741Z,72.00
2018-08-13T01:13:45.575Z,71.80
2018-08-13T01:14:45.563Z,71.60
2018-08-13T01:15:53.264Z,72.54
2018-08-13T01:16:45.584Z,72.11
2018-08-13T01:17:45.571Z,72.31
2018-08-13T01:18:53.281Z,72.71
2018-08-13T01:19:45.514Z,72.41
2018-08-13T01:20:45.497Z,72.44
2018-08-13T01:21:53.326Z,71.94
2018-08-13T01:22:45.504Z,72.91
2018-08-13T01:23:45.463Z,73.35
2018-08-13T01:24:45.451Z,73.35
2018-08-13T01:25:45.435Z,73.25
2018-08-13T01:26:45.455Z,73.55
2018-08-13T01:27:54.869Z,72.81
2018-08-13T01:28:45.398Z,73.11
2018-08-13T01:29:45.391Z,73.25
2018-08-13T01:30:53.381Z,72.85
2018-08-13T01:31:45.365Z,73.45
2018-08-13T01:32:45.357Z,73.15
2018-08-13T01:33:45.377Z,73.15
2018-08-13T01:34:45.380Z,73.05
2018-08-13T01:35:45.317Z,73.05
2018-08-13T01:36:52.907Z,73.25
2018-08-13T01:37:45.307Z,73.35
2018-08-13T01:38:45.285Z,73.85
2018-08-13T01:39:54.453Z,72.91
2018-08-13T01:40:45.262Z,73.62
2018-08-13T01:41:45.247Z,73.72
2018-08-13T01:42:52.955Z,73.65
2018-08-13T01:43:45.232Z,73.55
2018-08-13T01:44:45.253Z,73.65
2018-08-13T01:45:53.004Z,73.55
2018-08-13T01:46:45.204Z,73.45
2018-08-13T01:47:45.190Z,73.35
2018-08-13T01:48:45.190Z,73.45
2018-08-13T01:49:45.209Z,73.45
2018-08-13T01:50:45.157Z,73.32
2018-08-13T01:51:45.147Z,73.55
2018-08-13T01:52:45.141Z,73.55
2018-08-13T01:53:45.131Z,73.65
2018-08-13T01:54:45.159Z,73.65
2018-08-13T01:55:45.104Z,74.26
2018-08-13T01:56:45.095Z,74.36
2018-08-13T01:57:45.078Z,74.05
2018-08-13T01:58:45.073Z,74.16
2018-08-13T01:59:45.101Z,74.16
2018-08-13T02:00:45.052Z,74.26
2018-08-13T02:01:45.111Z,74.56
2018-08-13T02:02:45.031Z,74.69
2018-08-13T02:03:45.022Z,74.80
2018-08-13T02:04:45.050Z,74.60
2018-08-13T02:05:44.991Z,74.66
2018-08-13T02:06:44.999Z,74.40
2018-08-13T02:07:44.972Z,74.56
2018-08-13T02:08:44.957Z,75.00
2018-08-13T02:09:44.975Z,74.87
2018-08-13T02:10:44.938Z,75.51
2018-08-13T02:11:44.970Z,75.60
2018-08-13T02:12:44.913Z,75.51
2018-08-13T02:13:44.909Z,75.51
2018-08-13T02:14:44.889Z,75.60
2018-08-13T02:15:44.877Z,75.40
2018-08-13T02:16:44.927Z,75.71
2018-08-13T02:17:44.843Z,75.81
2018-08-13T02:18:44.839Z,75.60
2018-08-13T02:19:44.827Z,75.60
2018-08-13T02:20:44.812Z,75.71
2018-08-13T02:21:44.848Z,76.21
2018-08-13T02:22:44.796Z,76.11
2018-08-13T02:23:44.811Z,76.21
2018-08-13T02:24:44.774Z,76.31
2018-08-13T02:25:44.759Z,76.01
2018-08-13T02:26:44.798Z,76.42
2018-08-13T02:27:44.736Z,76.21
2018-08-13T02:28:44.729Z,76.04
2018-08-13T02:29:44.714Z,76.42
2018-08-13T02:30:44.704Z,76.65
2018-08-13T02:31:44.735Z,76.25
2018-08-13T02:32:44.687Z,77.36
2018-08-13T02:33:44.680Z,77.53
2018-08-13T02:34:44.682Z,77.36
2018-08-13T02:35:44.656Z,76.86
2018-08-13T02:36:44.672Z,77.76
2018-08-13T02:37:44.659Z,78.06
2018-08-13T02:38:44.621Z,77.86
2018-08-13T02:39:44.614Z,78.06
2018-08-13T02:40:44.611Z,77.97
2018-08-13T02:41:44.627Z,77.46
2018-08-13T02:42:44.601Z,78.27
2018-08-13T02:43:44.569Z,77.97
2018-08-13T02:44:44.553Z,77.97
2018-08-13T02:45:44.545Z,78.27
2018-08-13T02:46:44.558Z,78.71
2018-08-13T02:47:44.511Z,78.57
2018-08-13T02:48:52.515Z,78.57
2018-08-13T02:49:44.502Z,78.71
2018-08-13T02:50:44.482Z,78.71
2018-08-13T02:51:44.498Z,78.81
2018-08-13T02:52:44.461Z,79.01
2018-08-13T02:53:44.444Z,78.71
2018-08-13T02:54:44.465Z,79.01
2018-08-13T02:55:44.425Z,78.81
2018-08-13T02:56:44.411Z,79.01
2018-08-13T02:57:44.416Z,79.11
2018-08-13T02:58:44.387Z,78.91
2018-08-13T02:59:44.421Z,79.35
2018-08-13T03:00:44.368Z,79.41
2018-08-13T03:01:44.355Z,79.35
2018-08-13T03:02:44.343Z,79.35
2018-08-13T03:03:44.331Z,79.35
2018-08-13T03:04:44.456Z,79.15
2018-08-13T03:05:44.311Z,79.25
2018-08-13T03:06:44.300Z,79.11
2018-08-13T03:07:44.286Z,79.25
2018-08-13T03:08:44.277Z,79.55
2018-08-13T03:09:44.299Z,79.32
2018-08-13T03:10:44.260Z,79.32
2018-08-13T03:11:44.238Z,79.11
2018-08-13T03:12:44.234Z,79.32
2018-08-13T03:13:44.262Z,79.46
2018-08-13T03:14:44.243Z,79.41
2018-08-13T03:15:44.200Z,79.25
2018-08-13T03:16:44.199Z,79.21
2018-08-13T03:17:44.182Z,79.52
2018-08-13T03:18:44.215Z,79.21
2018-08-13T03:19:44.164Z,79.46
2018-08-13T03:20:44.147Z,79.25
2018-08-13T03:21:52.052Z,79.21
2018-08-13T03:22:44.127Z,79.32
2018-08-13T03:23:44.155Z,79.35
2018-08-13T03:24:44.147Z,79.21
2018-08-13T03:25:44.105Z,79.82
2018-08-13T03:26:44.076Z,80.36
2018-08-13T03:27:44.069Z,80.06
2018-08-13T03:28:44.055Z,80.06
2018-08-13T03:29:44.079Z,80.16
2018-08-13T03:30:53.132Z,79.96
2018-08-13T03:31:44.027Z,80.06
2018-08-13T03:32:44.014Z,80.06
2018-08-13T03:33:51.638Z,79.96
2018-08-13T03:34:43.991Z,80.26
2018-08-13T03:35:44.026Z,79.75
2018-08-13T03:36:43.967Z,79.75
2018-08-13T03:37:43.965Z,80.06
2018-08-13T03:38:43.941Z,79.75
2018-08-13T03:39:51.667Z,80.36
2018-08-13T03:40:43.937Z,80.16
2018-08-13T03:41:43.899Z,80.16
2018-08-13T03:42:43.897Z,80.46
2018-08-13T03:43:43.886Z,80.57
2018-08-13T03:44:43.869Z,80.97
2018-08-13T03:45:53.206Z,80.66
2018-08-13T03:46:43.847Z,81.07
2018-08-13T03:47:43.834Z,80.77
2018-08-13T03:48:51.720Z,80.77
2018-08-13T03:49:43.816Z,81.37
2018-08-13T03:50:43.802Z,81.17
2018-08-13T03:51:52.286Z,81.17
2018-08-13T03:52:43.770Z,81.07
2018-08-13T03:53:43.816Z,80.87
2018-08-13T03:54:43.754Z,80.87
2018-08-13T03:55:43.746Z,80.77
2018-08-13T03:56:43.766Z,80.77
2018-08-13T03:57:51.288Z,80.77
2018-08-13T03:58:43.708Z,80.97
2018-08-13T03:59:43.714Z,81.17
2018-08-13T04:00:43.688Z,81.27
2018-08-13T04:01:43.718Z,81.17
2018-08-13T04:02:43.660Z,81.27
2018-08-13T04:03:43.686Z,81.68
2018-08-13T04:04:43.641Z,81.78
2018-08-13T04:05:43.639Z,81.48
2018-08-13T04:06:43.626Z,81.07
2018-08-13T04:07:43.617Z,81.48
2018-08-13T04:08:43.644Z,81.37
2018-08-13T04:09:43.595Z,80.97
2018-08-13T04:10:43.577Z,81.07
2018-08-13T04:11:43.582Z,81.17
2018-08-13T04:12:43.603Z,81.34
2018-08-13T04:13:43.580Z,81.17
2018-08-13T04:14:43.549Z,80.93
2018-08-13T04:15:43.524Z,81.23
2018-08-13T04:16:43.526Z,81.54
2018-08-13T04:17:43.529Z,81.64
2018-08-13T04:18:43.530Z,81.44
2018-08-13T04:19:43.479Z,81.23
2018-08-13T04:20:43.464Z,81.44
2018-08-13T04:21:43.460Z,81.54
2018-08-13T04:22:43.474Z,81.34
2018-08-13T04:23:43.440Z,81.44
2018-08-13T04:24:43.424Z,82.24
2018-08-13T04:25:43.410Z,82.04
2018-08-13T04:26:43.401Z,82.04
2018-08-13T04:27:52.849Z,82.14
2018-08-13T04:28:43.385Z,81.94
2018-08-13T04:29:43.406Z,82.45
2018-08-13T04:30:51.361Z,82.65
2018-08-13T04:31:43.346Z,82.35
2018-08-13T04:32:43.443Z,82.65
2018-08-13T04:33:43.312Z,82.71
2018-08-13T04:34:43.302Z,82.65
2018-08-13T04:35:43.290Z,82.81
2018-08-13T04:36:43.279Z,82.95
2018-08-13T04:37:43.304Z,82.91
2018-08-13T04:38:43.425Z,82.71
2018-08-13T04:39:43.284Z,82.81
2018-08-13T04:40:43.230Z,82.61
2018-08-13T04:41:43.234Z,82.71
2018-08-13T04:42:43.210Z,83.15
2018-08-13T04:43:43.244Z,82.81
2018-08-13T04:44:43.190Z,82.91
2018-08-13T04:45:43.186Z,82.61
2018-08-13T04:46:43.169Z,82.01
2018-08-13T04:47:43.156Z,82.61
2018-08-13T04:48:43.180Z,81.90
2018-08-13T04:49:43.132Z,81.46
2018-08-13T04:50:43.124Z,81.16
2018-08-13T04:51:43.123Z,81.16
2018-08-13T04:52:43.094Z,80.76
2018-08-13T04:53:43.139Z,81.16
2018-08-13T04:54:43.087Z,81.16
2018-08-13T04:55:43.062Z,80.65
2018-08-13T04:56:43.058Z,80.51
2018-08-13T04:57:43.046Z,79.91
2018-08-13T04:58:43.062Z,79.61
2018-08-13T04:59:43.050Z,80.01
2018-08-13T05:00:43.024Z,79.81
2018-08-13T05:01:43.002Z,80.01
2018-08-13T05:02:42.997Z,79.97
2018-08-13T05:03:42.975Z,79.71
2018-08-13T05:04:43.005Z,79.36
2018-08-13T05:05:42.961Z,79.47
2018-08-13T05:06:42.947Z,78.96
2018-08-13T05:07:42.939Z,79.27
2018-08-13T05:08:42.934Z,78.86
2018-08-13T05:09:42.955Z,78.96
2018-08-13T05:10:42.931Z,78.96
2018-08-13T05:11:42.897Z,78.86
2018-08-13T05:12:42.884Z,78.96
2018-08-13T05:13:42.877Z,79.06
2018-08-13T05:14:42.870Z,78.76
2018-08-13T05:15:42.897Z,79.06
2018-08-13T05:16:42.840Z,79.16
2018-08-13T05:17:42.829Z,79.77
2018-08-13T05:18:42.827Z,78.96
2018-08-13T05:19:42.849Z,79.06
2018-08-13T05:20:42.843Z,78.96
2018-08-13T05:21:42.787Z,78.96
2018-08-13T05:22:42.773Z,78.86
2018-08-13T05:23:42.764Z,78.76
2018-08-13T05:24:42.749Z,78.56
2018-08-13T05:25:42.786Z,78.92
2018-08-13T05:26:42.725Z,78.86
2018-08-13T05:27:42.711Z,78.72
2018-08-13T05:28:42.741Z,78.52
2018-08-13T05:29:42.698Z,78.42
2018-08-13T05:30:42.725Z,78.32
2018-08-13T05:31:42.675Z,78.52
2018-08-13T05:32:42.667Z,78.52
2018-08-13T05:33:50.382Z,77.62
2018-08-13T05:34:42.630Z,77.62
2018-08-13T05:35:42.651Z,77.51
2018-08-13T05:36:42.606Z,77.51
2018-08-13T05:37:42.597Z,77.28
2018-08-13T05:38:42.632Z,77.28
2018-08-13T05:39:42.568Z,77.08
2018-08-13T05:40:42.564Z,76.97
2018-08-13T05:41:42.552Z,76.87
2018-08-13T05:42:42.543Z,76.57
2018-08-13T05:43:42.589Z,76.23
2018-08-13T05:44:42.515Z,76.17
2018-08-13T05:45:42.509Z,76.43
2018-08-13T05:46:42.503Z,76.47
2018-08-13T05:47:42.490Z,76.07
2018-08-13T05:48:42.504Z,76.54
2018-08-13T05:49:42.496Z,75.83
2018-08-13T05:50:42.451Z,75.53
2018-08-13T05:51:42.432Z,75.53
2018-08-13T05:52:42.428Z,75.33
2018-08-13T05:53:42.421Z,75.33
2018-08-13T05:54:42.437Z,75.49
2018-08-13T05:55:42.398Z,75.33
2018-08-13T05:56:42.411Z,75.39
2018-08-13T05:57:49.910Z,75.70
2018-08-13T05:58:42.370Z,74.58
2018-08-13T05:59:42.349Z,74.45
2018-08-13T06:00:49.952Z,74.35
2018-08-13T06:01:42.367Z,74.15
2018-08-13T06:02:42.325Z,73.85
2018-08-13T06:03:49.987Z,73.35
2018-08-13T06:04:42.305Z,73.51
2018-08-13T06:05:42.296Z,72.71
2018-08-13T06:06:52.527Z,71.90
2018-08-13T06:07:42.279Z,72.30
2018-08-13T06:08:42.260Z,71.70
2018-08-13T06:09:50.049Z,72.10
2018-08-13T06:10:42.269Z,71.20
2018-08-13T06:11:42.325Z,71.97
2018-08-13T06:12:50.094Z,72.07
2018-08-13T06:13:42.236Z,71.77
2018-08-13T06:14:42.180Z,71.06
2018-08-13T06:15:51.109Z,71.77
2018-08-13T06:16:42.166Z,71.03
2018-08-13T06:17:42.149Z,71.73
2018-08-13T06:18:42.179Z,70.53
2018-08-13T06:19:42.129Z,70.23
2018-08-13T06:20:42.116Z,69.49
2018-08-13T06:21:52.175Z,69.69
2018-08-13T06:22:42.100Z,69.42
2018-08-13T06:23:42.089Z,69.62
2018-08-13T06:24:49.685Z,69.22
2018-08-13T06:25:42.069Z,69.29
2018-08-13T06:26:42.089Z,69.19
2018-08-13T06:27:49.709Z,69.99
2018-08-13T06:28:42.101Z,69.39
2018-08-13T06:29:42.031Z,69.39
2018-08-13T06:30:49.753Z,68.59
2018-08-13T06:31:42.005Z,68.29
2018-08-13T06:32:42.035Z,68.29
2018-08-13T06:33:49.774Z,68.18
2018-08-13T06:34:42.011Z,68.29
2018-08-13T06:35:41.982Z,68.38
2018-08-13T06:36:49.816Z,67.98
2018-08-13T06:37:41.932Z,67.98
2018-08-13T06:38:41.925Z,67.18
2018-08-13T06:39:51.380Z,67.78
2018-08-13T06:40:41.907Z,67.88
2018-08-13T06:41:41.876Z,67.48
2018-08-13T06:42:49.880Z,67.41
2018-08-13T06:43:41.863Z,68.21
2018-08-13T06:44:41.853Z,67.68
2018-08-13T06:45:41.881Z,67.82
2018-08-13T06:46:41.822Z,67.82
2018-08-13T06:47:41.814Z,68.18
2018-08-13T06:48:49.414Z,67.28
2018-08-13T06:49:41.801Z,67.78
2018-08-13T06:50:41.814Z,67.85
2018-08-13T06:51:41.800Z,67.18
2018-08-13T06:52:41.761Z,66.58
2018-08-13T06:53:41.750Z,67.25
2018-08-13T06:54:41.738Z,66.05
2018-08-13T06:55:41.722Z,66.75
2018-08-13T06:56:41.764Z,66.64
2018-08-13T06:57:49.432Z,66.64
2018-08-13T06:58:41.698Z,66.05
2018-08-13T06:59:41.679Z,66.24
2018-08-13T07:00:49.526Z,65.84
2018-08-13T07:01:41.707Z,65.34
2018-08-13T07:02:41.645Z,66.05
2018-08-13T07:03:49.519Z,64.94
2018-08-13T07:04:41.636Z,64.94
2018-08-13T07:05:41.621Z,66.05
2018-08-13T07:06:51.079Z,66.14
2018-08-13T07:07:41.641Z,65.84
2018-08-13T07:08:41.601Z,66.05
2018-08-13T07:09:49.592Z,64.43
2018-08-13T07:10:41.571Z,65.01
2018-08-13T07:11:41.553Z,65.01
2018-08-13T07:12:50.651Z,64.51
2018-08-13T07:13:41.539Z,64.78
2018-08-13T07:14:41.521Z,64.68
2018-08-13T07:15:41.577Z,64.28
2018-08-13T07:16:41.501Z,63.78
2018-08-13T07:17:41.525Z,63.57
2018-08-13T07:18:41.486Z,62.74
2018-08-13T07:19:41.467Z,63.14
2018-08-13T07:20:41.465Z,62.64
2018-08-13T07:21:41.447Z,62.44
2018-08-13T07:22:41.471Z,62.54
2018-08-13T07:23:41.427Z,62.34
2018-08-13T07:24:41.448Z,62.51
2018-08-13T07:25:41.410Z,62.41
2018-08-13T07:26:41.396Z,61.88
2018-08-13T07:27:41.424Z,61.68
2018-08-13T07:28:41.369Z,61.48
2018-08-13T07:29:41.402Z,61.38
2018-08-13T07:30:41.342Z,61.28
2018-08-13T07:31:41.384Z,60.95
2018-08-13T07:32:41.328Z,60.32
2018-08-13T07:33:41.340Z,60.72
2018-08-13T07:34:41.338Z,60.32
2018-08-13T07:35:41.285Z,60.92
2018-08-13T07:36:49.159Z,60.42
2018-08-13T07:37:41.260Z,60.22
2018-08-13T07:38:41.246Z,60.52
2018-08-13T07:39:41.276Z,59.72
2018-08-13T07:40:41.228Z,60.12
2018-08-13T07:41:41.263Z,60.22
2018-08-13T07:42:41.210Z,60.02
2018-08-13T07:43:41.199Z,60.32
2018-08-13T07:44:41.187Z,59.42
2018-08-13T07:45:41.210Z,60.12
2018-08-13T07:46:41.202Z,59.52
2018-08-13T07:47:41.168Z,59.42
2018-08-13T07:48:48.693Z,59.22
2018-08-13T07:49:41.162Z,59.52
2018-08-13T07:50:41.177Z,59.42
2018-08-13T07:51:48.808Z,59.52
2018-08-13T07:52:41.303Z,59.82
2018-08-13T07:53:41.085Z,59.32
2018-08-13T07:54:41.099Z,59.52
2018-08-13T07:55:41.067Z,59.72
2018-08-13T07:56:41.048Z,59.42
2018-08-13T07:57:41.069Z,58.49
2018-08-13T07:58:41.031Z,59.59
2018-08-13T07:59:41.008Z,58.89
2018-08-13T08:00:41.038Z,58.80
2018-08-13T08:01:40.992Z,59.19
2018-08-13T08:02:41.012Z,59.49
2018-08-13T08:03:48.742Z,59.59
2018-08-13T08:04:40.958Z,59.39
2018-08-13T08:05:40.984Z,59.39
2018-08-13T08:06:40.949Z,58.80
2018-08-13T08:07:40.919Z,59.17
2018-08-13T08:08:40.919Z,59.06
2018-08-13T08:09:40.893Z,58.26
2018-08-13T08:10:40.923Z,58.21
2018-08-13T08:11:40.880Z,58.31
2018-08-13T08:12:40.868Z,57.28
2018-08-13T08:13:40.860Z,56.29
2018-08-13T08:14:40.873Z,56.88
2018-08-13T08:15:50.298Z,55.88
2018-08-13T08:16:40.850Z,56.56
2018-08-13T08:17:40.811Z,55.96
2018-08-13T08:18:49.814Z,54.86
2018-08-13T08:19:40.797Z,54.86
2018-08-13T08:20:40.776Z,54.53
2018-08-13T08:21:50.881Z,54.76
2018-08-13T08:22:40.765Z,54.74
2018-08-13T08:23:40.758Z,54.04
2018-08-13T08:24:40.755Z,53.91
2018-08-13T08:25:40.768Z,53.54
2018-08-13T08:26:40.777Z,53.54
2018-08-13T08:27:40.719Z,54.14
2018-08-13T08:28:40.707Z,54.34
2018-08-13T08:29:40.691Z,52.72
2018-08-13T08:30:40.704Z,53.52
2018-08-13T08:31:40.725Z,52.59
2018-08-13T08:32:40.667Z,52.39
2018-08-13T08:33:40.639Z,52.69
2018-08-13T08:34:40.706Z,52.49
2018-08-13T08:35:40.633Z,52.76
2018-08-13T08:36:40.671Z,52.37
2018-08-13T08:37:40.618Z,51.87
2018-08-13T08:38:40.585Z,51.05
2018-08-13T08:39:40.589Z,50.45
2018-08-13T08:40:40.667Z,50.75
2018-08-13T08:41:40.617Z,50.33
2018-08-13T08:42:40.619Z,49.11
2018-08-13T08:43:40.535Z,49.21
2018-08-13T08:44:40.527Z,48.71
2018-08-13T08:45:40.529Z,48.61
2018-08-13T08:46:40.533Z,48.71
2018-08-13T08:47:40.535Z,48.41
2018-08-13T08:48:40.531Z,49.01
2018-08-13T08:49:40.480Z,49.51
2018-08-13T08:50:40.451Z,47.54
2018-08-13T08:51:40.439Z,48.34
2018-08-13T08:52:40.481Z,48.24
2018-08-13T08:53:40.573Z,48.14
2018-08-13T08:54:40.422Z,48.74
2018-08-13T08:55:40.393Z,48.54
2018-08-13T08:56:40.430Z,48.22
2018-08-13T08:57:40.373Z,48.11
2018-08-13T08:58:41.345Z,47.80
2018-08-13T08:59:40.365Z,47.30
2018-08-13T09:00:40.351Z,47.38
2018-08-13T09:01:40.339Z,47.55
2018-08-13T09:02:40.324Z,46.76
2018-08-13T09:03:40.332Z,46.36
2018-08-13T09:04:40.322Z,47.13
2018-08-13T09:05:40.296Z,46.42
2018-08-13T09:06:40.276Z,46.31
2018-08-13T09:07:45.606Z,46.61
2018-08-13T09:08:41.305Z,46.39
2018-08-13T09:09:40.254Z,45.50
2018-08-13T09:10:40.262Z,45.40
2018-08-13T09:11:40.228Z,45.92
2018-08-13T09:12:40.258Z,45.90
2018-08-13T09:13:40.196Z,46.00
2018-08-13T09:14:40.196Z,45.40
2018-08-13T09:15:40.240Z,45.12
2018-08-13T09:16:40.193Z,46.42
2018-08-13T09:17:40.152Z,45.64
2018-08-13T09:18:40.143Z,46.24
2018-08-13T09:19:40.186Z,45.34
2018-08-13T09:20:40.130Z,46.44
2018-08-13T09:21:40.131Z,45.34
2018-08-13T09:22:40.125Z,45.23
2018-08-13T09:23:40.127Z,45.62
2018-08-13T09:24:40.151Z,45.12
2018-08-13T09:25:40.239Z,45.23
2018-08-13T09:26:40.076Z,45.30
2018-08-13T09:27:40.092Z,44.68
2018-08-13T09:28:40.084Z,45.38
2018-08-13T09:29:40.087Z,43.87
2018-08-13T09:30:40.026Z,43.46
2018-08-13T09:31:40.020Z,42.52
2018-08-13T09:32:40.027Z,42.03
2018-08-13T09:33:40.005Z,42.92
2018-08-13T09:34:40.049Z,42.62
2018-08-13T09:35:39.971Z,42.21
2018-08-13T09:36:39.965Z,42.19
2018-08-13T09:37:40.007Z,42.50
2018-08-13T09:38:39.954Z,42.40
2018-08-13T09:39:39.970Z,42.30
2018-08-13T09:40:39.944Z,40.70
2018-08-13T09:41:39.903Z,38.85
2018-08-13T09:42:39.896Z,38.49
2018-08-13T09:43:39.915Z,36.95
2018-08-13T09:44:39.865Z,35.99
2018-08-13T09:45:39.899Z,34.69
2018-08-13T09:46:39.836Z,32.70
2018-08-13T09:47:39.836Z,32.86
2018-08-13T09:48:39.820Z,31.29
2018-08-13T09:49:39.818Z,32.04
2018-08-13T09:50:39.847Z,30.29
2018-08-13T09:51:39.814Z,31.54
2018-08-13T09:52:39.824Z,29.64
2018-08-13T09:53:39.808Z,29.33
2018-08-13T09:54:39.777Z,27.86
2018-08-13T09:55:39.799Z,27.93
2018-08-13T09:56:39.748Z,24.89
2018-08-13T09:57:39.769Z,25.86
2018-08-13T09:58:39.757Z,25.15
2018-08-13T09:59:39.714Z,26.65
2018-08-13T10:00:39.837Z,26.94
2018-08-13T10:01:39.689Z,27.58
2018-08-13T10:02:39.690Z,28.09
2018-08-13T10:03:39.707Z,29.49
2018-08-13T10:04:39.661Z,30.80
2018-08-13T10:05:39.658Z,31.24
2018-08-13T10:06:39.676Z,32.43
2018-08-13T10:07:39.667Z,33.05
2018-08-13T10:08:39.634Z,32.86
2018-08-13T10:09:39.645Z,32.76
2018-08-13T10:10:39.597Z,33.05
2018-08-13T10:11:39.611Z,32.25
2018-08-13T10:12:39.587Z,32.95
2018-08-13T10:13:39.571Z,34.22
2018-08-13T10:14:39.600Z,32.37
2018-08-13T10:15:39.588Z,31.68
2018-08-13T10:16:39.545Z,30.98
2018-08-13T10:17:39.677Z,30.46
2018-08-13T10:18:39.520Z,29.16
2018-08-13T10:19:39.548Z,29.45
2018-08-13T10:20:39.505Z,29.74
2018-08-13T10:21:39.518Z,29.24
2018-08-13T10:22:39.478Z,28.81
2018-08-13T10:23:39.473Z,27.03
2018-08-13T10:24:39.519Z,27.25
2018-08-13T10:25:39.442Z,28.06
2018-08-13T10:26:39.434Z,27.94
2018-08-13T10:27:39.430Z,28.15
2018-08-13T10:28:39.416Z,27.26
2018-08-13T10:29:39.459Z,27.03
2018-08-13T10:30:39.388Z,26.82
2018-08-13T10:31:39.400Z,25.25
2018-08-13T10:32:39.402Z,25.70
2018-08-13T10:33:39.404Z,25.01
2018-08-13T10:34:39.426Z,25.59
2018-08-13T10:35:39.409Z,25.05
2018-08-13T10:36:39.340Z,24.63
2018-08-13T10:37:39.364Z,25.45
2018-08-13T10:38:39.318Z,26.55
2018-08-13T10:39:39.298Z,27.63
2018-08-13T10:40:39.360Z,27.91
2018-08-13T10:41:39.278Z,27.42
2018-08-13T10:42:39.263Z,27.24
2018-08-13T10:43:39.297Z,28.63
2018-08-13T10:44:39.262Z,28.44
2018-08-13T10:45:39.286Z,30.14
2018-08-13T10:46:39.234Z,30.46
2018-08-13T10:47:39.214Z,29.17
2018-08-13T10:48:39.208Z,28.05
2018-08-13T10:49:39.277Z,28.11
2018-08-13T10:50:39.236Z,27.73
2018-08-13T10:51:39.243Z,27.74
2018-08-13T10:52:39.196Z,28.12
2018-08-13T10:53:39.169Z,27.52
2018-08-13T10:54:39.144Z,28.53
2018-08-13T10:55:39.160Z,26.73
2018-08-13T10:56:39.169Z,27.37
2018-08-13T10:57:39.174Z,25.99
2018-08-13T10:58:39.133Z,25.95
2018-08-13T10:59:39.133Z,25.16
2018-08-13T11:00:39.153Z,24.78
2018-08-13T11:01:39.154Z,25.43
2018-08-13T11:02:39.084Z,24.93
2018-08-13T11:03:39.113Z,24.77
2018-08-13T11:04:39.065Z,24.12
2018-08-13T11:05:39.051Z,24.63
2018-08-13T11:06:39.109Z,24.52
2018-08-13T11:07:39.062Z,23.91
2018-08-13T11:08:39.052Z,23.18
2018-08-13T11:09:39.016Z,22.76
2018-08-13T11:10:38.999Z,22.53
2018-08-13T11:11:39.019Z,21.73
2018-08-13T11:12:39.025Z,21.05
2018-08-13T11:13:38.970Z,21.64
2018-08-13T11:14:38.986Z,22.34
2018-08-13T11:15:39.006Z,23.20
2018-08-13T11:16:38.945Z,21.64
2018-08-13T11:17:38.975Z,21.53
2018-08-13T11:18:38.961Z,22.79
2018-08-13T11:19:38.921Z,23.25
2018-08-13T11:20:38.912Z,24.98
2018-08-13T11:21:38.963Z,23.93
2018-08-13T11:22:38.890Z,25.50
2018-08-13T11:23:38.919Z,26.68
2018-08-13T11:24:38.902Z,26.99
2018-08-13T11:25:38.909Z,27.61
2018-08-13T11:26:38.867Z,27.24
2018-08-13T11:27:38.824Z,27.33
2018-08-13T11:28:38.980Z,27.62
2018-08-13T11:29:38.822Z,27.98
2018-08-13T11:30:38.804Z,26.68
2018-08-13T11:31:38.800Z,26.50
2018-08-13T11:32:38.776Z,27.28
2018-08-13T11:33:38.805Z,28.09
2018-08-13T11:34:38.759Z,27.61
2018-08-13T11:35:38.842Z,26.48
2018-08-13T11:36:38.789Z,25.63
2018-08-13T11:37:38.725Z,24.88
2018-08-13T11:38:38.748Z,24.46
2018-08-13T11:39:38.792Z,23.83
2018-08-13T11:40:38.718Z,24.01
2018-08-13T11:41:38.706Z,23.42
2018-08-13T11:42:38.691Z,22.79
2018-08-13T11:43:38.662Z,23.55
2018-08-13T11:44:38.683Z,23.24
2018-08-13T11:45:38.644Z,21.98
2018-08-13T11:46:38.634Z,22.94
2018-08-13T11:47:38.660Z,21.37
2018-08-13T11:48:38.655Z,21.27
2018-08-13T11:49:38.670Z,22.97
2018-08-13T11:50:38.589Z,24.17
2018-08-13T11:51:38.586Z,22.89
2018-08-13T11:52:38.596Z,23.61
2018-08-13T11:53:38.580Z,25.08
2018-08-13T11:54:38.587Z,24.21
2018-08-13T11:55:38.566Z,24.07
2018-08-13T11:56:38.542Z,23.65
2018-08-13T11:57:38.538Z,22.92
2018-08-13T11:58:38.520Z,23.20
2018-08-13T11:59:38.552Z,21.14
2018-08-13T12:00:38.525Z,21.75
2018-08-13T12:01:38.497Z,22.02
2018-08-13T12:02:38.526Z,22.40
2018-08-13T12:03:38.477Z,21.53
2018-08-13T12:04:38.497Z,21.75
2018-08-13T12:05:38.454Z,22.82
2018-08-13T12:06:38.488Z,21.79
2018-08-13T12:07:38.432Z,22.76
2018-08-13T12:08:38.449Z,21.88
2018-08-13T12:09:38.425Z,21.96
2018-08-13T12:10:38.476Z,20.75
2018-08-13T12:11:46.427Z,21.53
2018-08-13T12:12:38.448Z,21.37
2018-08-13T12:13:38.377Z,22.81
2018-08-13T12:14:38.361Z,23.54
2018-08-13T12:15:38.405Z,23.26
2018-08-13T12:16:38.341Z,23.14
2018-08-13T12:17:38.331Z,23.23
2018-08-13T12:18:38.337Z,22.80
2018-08-13T12:19:38.370Z,23.39
2018-08-13T12:20:38.355Z,22.50
2018-08-13T12:21:38.301Z,22.81
2018-08-13T12:22:38.321Z,22.86
2018-08-13T12:23:38.285Z,23.57
2018-08-13T12:24:38.277Z,23.25
2018-08-13T12:25:38.315Z,21.42
2018-08-13T12:26:38.249Z,21.29
2018-08-13T12:27:38.260Z,21.26
2018-08-13T12:28:38.233Z,20.36
2018-08-13T12:29:38.213Z,20.23
2018-08-13T12:30:38.244Z,19.93
2018-08-13T12:31:38.228Z,20.07
2018-08-13T12:32:38.174Z,20.79
2018-08-13T12:33:38.215Z,21.16
2018-08-13T12:34:38.186Z,20.08
2018-08-13T12:35:38.154Z,21.04
2018-08-13T12:36:38.151Z,20.27
2018-08-13T12:37:38.172Z,20.84
2018-08-13T12:38:38.151Z,20.93
2018-08-13T12:39:38.129Z,20.73
2018-08-13T12:40:38.102Z,19.96
2018-08-13T12:41:38.174Z,19.75
2018-08-13T12:42:38.094Z,20.73
2018-08-13T12:43:38.085Z,19.85
2018-08-13T12:44:38.066Z,19.19
2018-08-13T12:45:38.067Z,19.20
2018-08-13T12:46:38.070Z,18.71
2018-08-13T12:47:38.037Z,18.89
2018-08-13T12:48:38.024Z,18.70
2018-08-13T12:49:38.048Z,18.79
2018-08-13T12:50:38.015Z,18.70
2018-08-13T12:51:38.043Z,19.01
2018-08-13T12:52:37.976Z,19.21